sensor_id;sensor_type;location;lat;lon;timestamp;P1;durP1;ratioP1;P2;durP2;ratioP2
15218;SDS011;15623;53.986;11.676;2023-10-13T00:02:03;9.30;;;4.17;;
15218;SDS011;15623;53.986;11.676;2023-10-13T00:04:31;10.07;;;3.80;;
15218;SDS011;15623;53.986;11.676;2023-10-13T00:07:01;10.23;;;3.53;;
15218;SDS011;15623;53.986;11.676;2023-10-13T00:09:29;13.50;;;3.40;;
15218;SDS011;15623;53.986;11.676;2023-10-13T00:11:58;13.30;;;3.40;;
15218;SDS011;15623;53.986;11.676;2023-10-13T00:14:27;9.80;;;3.37;;
15218;SDS011;15623;53.986;11.676;2023-10-13T00:16:59;9.03;;;3.07;;
15218;SDS011;15623;53.986;11.676;2023-10-13T00:19:41;10.07;;;2.90;;
15218;SDS011;15623;53.986;11.676;2023-10-13T00:22:11;7.87;;;3.23;;
15218;SDS011;15623;53.986;11.676;2023-10-13T00:24:41;11.37;;;3.73;;
15218;SDS011;15623;53.986;11.676;2023-10-13T00:27:10;9.03;;;3.27;;
15218;SDS011;15623;53.986;11.676;2023-10-13T00:29:55;13.50;;;3.50;;
15218;SDS011;15623;53.986;11.676;2023-10-13T00:32:36;7.83;;;3.10;;
15218;SDS011;15623;53.986;11.676;2023-10-13T00:35:05;8.80;;;3.50;;
15218;SDS011;15623;53.986;11.676;2023-10-13T00:37:40;8.77;;;3.20;;
15218;SDS011;15623;53.986;11.676;2023-10-13T00:40:09;8.83;;;3.50;;
15218;SDS011;15623;53.986;11.676;2023-10-13T00:42:51;9.43;;;3.57;;
15218;SDS011;15623;53.986;11.676;2023-10-13T00:45:21;7.43;;;3.17;;
15218;SDS011;15623;53.986;11.676;2023-10-13T00:47:48;7.47;;;3.67;;
15218;SDS011;15623;53.986;11.676;2023-10-13T00:50:22;11.73;;;3.20;;
15218;SDS011;15623;53.986;11.676;2023-10-13T00:52:50;11.17;;;3.40;;
15218;SDS011;15623;53.986;11.676;2023-10-13T00:55:17;6.40;;;3.30;;
15218;SDS011;15623;53.986;11.676;2023-10-13T00:57:48;13.43;;;3.33;;
15218;SDS011;15623;53.986;11.676;2023-10-13T01:00:14;9.10;;;4.00;;
15218;SDS011;15623;53.986;11.676;2023-10-13T01:02:51;11.70;;;3.73;;
15218;SDS011;15623;53.986;11.676;2023-10-13T01:05:21;11.83;;;3.80;;
15218;SDS011;15623;53.986;11.676;2023-10-13T01:07:48;8.80;;;3.73;;
15218;SDS011;15623;53.986;11.676;2023-10-13T01:10:18;10.37;;;3.83;;
15218;SDS011;15623;53.986;11.676;2023-10-13T01:12:45;11.53;;;3.93;;
15218;SDS011;15623;53.986;11.676;2023-10-13T01:15:12;10.07;;;3.77;;
15218;SDS011;15623;53.986;11.676;2023-10-13T01:17:43;9.57;;;3.57;;
15218;SDS011;15623;53.986;11.676;2023-10-13T01:20:11;10.43;;;4.30;;
15218;SDS011;15623;53.986;11.676;2023-10-13T01:22:45;16.50;;;4.43;;
15218;SDS011;15623;53.986;11.676;2023-10-13T01:25:22;8.90;;;4.10;;
15218;SDS011;15623;53.986;11.676;2023-10-13T01:27:53;10.07;;;3.87;;
15218;SDS011;15623;53.986;11.676;2023-10-13T01:30:19;10.33;;;3.90;;
15218;SDS011;15623;53.986;11.676;2023-10-13T01:32:49;12.60;;;3.80;;
15218;SDS011;15623;53.986;11.676;2023-10-13T01:35:17;10.10;;;3.90;;
15218;SDS011;15623;53.986;11.676;2023-10-13T01:37:50;9.53;;;3.70;;
15218;SDS011;15623;53.986;11.676;2023-10-13T01:40:16;8.60;;;3.60;;
15218;SDS011;15623;53.986;11.676;2023-10-13T01:42:47;11.07;;;3.90;;
15218;SDS011;15623;53.986;11.676;2023-10-13T01:45:20;14.43;;;3.53;;
15218;SDS011;15623;53.986;11.676;2023-10-13T01:47:51;12.60;;;3.80;;
15218;SDS011;15623;53.986;11.676;2023-10-13T01:50:18;12.67;;;4.33;;
15218;SDS011;15623;53.986;11.676;2023-10-13T01:52:52;10.83;;;3.67;;
15218;SDS011;15623;53.986;11.676;2023-10-13T01:55:25;19.07;;;4.43;;
15218;SDS011;15623;53.986;11.676;2023-10-13T01:57:55;13.10;;;4.03;;
15218;SDS011;15623;53.986;11.676;2023-10-13T02:00:21;10.33;;;3.97;;
15218;SDS011;15623;53.986;11.676;2023-10-13T02:02:50;14.77;;;4.43;;
15218;SDS011;15623;53.986;11.676;2023-10-13T02:05:17;13.90;;;4.13;;
15218;SDS011;15623;53.986;11.676;2023-10-13T02:07:45;8.13;;;4.33;;
15218;SDS011;15623;53.986;11.676;2023-10-13T02:10:11;10.67;;;4.33;;
15218;SDS011;15623;53.986;11.676;2023-10-13T02:12:39;15.23;;;5.00;;
15218;SDS011;15623;53.986;11.676;2023-10-13T02:15:10;9.90;;;4.90;;
15218;SDS011;15623;53.986;11.676;2023-10-13T02:17:48;9.20;;;4.83;;
15218;SDS011;15623;53.986;11.676;2023-10-13T02:20:17;11.10;;;4.63;;
15218;SDS011;15623;53.986;11.676;2023-10-13T02:22:47;18.57;;;6.03;;
15218;SDS011;15623;53.986;11.676;2023-10-13T02:25:14;12.87;;;4.87;;
15218;SDS011;15623;53.986;11.676;2023-10-13T02:28:00;15.87;;;5.30;;
15218;SDS011;15623;53.986;11.676;2023-10-13T02:30:28;11.07;;;4.50;;
15218;SDS011;15623;53.986;11.676;2023-10-13T02:32:56;11.27;;;4.67;;
15218;SDS011;15623;53.986;11.676;2023-10-13T02:35:22;18.13;;;5.03;;
15218;SDS011;15623;53.986;11.676;2023-10-13T02:37:55;13.97;;;4.80;;
15218;SDS011;15623;53.986;11.676;2023-10-13T02:40:24;12.80;;;4.60;;
15218;SDS011;15623;53.986;11.676;2023-10-13T02:42:51;16.00;;;4.80;;
15218;SDS011;15623;53.986;11.676;2023-10-13T02:45:18;9.87;;;5.03;;
15218;SDS011;15623;53.986;11.676;2023-10-13T02:47:52;12.73;;;4.97;;
15218;SDS011;15623;53.986;11.676;2023-10-13T02:50:35;12.70;;;5.00;;
15218;SDS011;15623;53.986;11.676;2023-10-13T02:53:03;12.40;;;5.30;;
15218;SDS011;15623;53.986;11.676;2023-10-13T02:55:37;10.30;;;4.40;;
15218;SDS011;15623;53.986;11.676;2023-10-13T02:58:04;9.43;;;4.57;;
15218;SDS011;15623;53.986;11.676;2023-10-13T03:00:34;11.30;;;4.70;;
15218;SDS011;15623;53.986;11.676;2023-10-13T03:03:02;14.07;;;5.10;;
15218;SDS011;15623;53.986;11.676;2023-10-13T03:05:34;9.40;;;5.07;;
15218;SDS011;15623;53.986;11.676;2023-10-13T03:08:00;9.63;;;4.90;;
15218;SDS011;15623;53.986;11.676;2023-10-13T03:10:29;13.17;;;5.00;;
15218;SDS011;15623;53.986;11.676;2023-10-13T03:12:56;13.50;;;5.40;;
15218;SDS011;15623;53.986;11.676;2023-10-13T03:15:23;14.60;;;5.27;;
15218;SDS011;15623;53.986;11.676;2023-10-13T03:17:55;13.27;;;6.27;;
15218;SDS011;15623;53.986;11.676;2023-10-13T03:20:25;15.50;;;6.20;;
15218;SDS011;15623;53.986;11.676;2023-10-13T03:22:56;11.57;;;5.67;;
15218;SDS011;15623;53.986;11.676;2023-10-13T03:25:24;13.23;;;5.87;;
15218;SDS011;15623;53.986;11.676;2023-10-13T03:27:55;10.43;;;6.37;;
15218;SDS011;15623;53.986;11.676;2023-10-13T03:30:30;18.67;;;6.43;;
15218;SDS011;15623;53.986;11.676;2023-10-13T03:33:01;12.27;;;6.67;;
15218;SDS011;15623;53.986;11.676;2023-10-13T03:35:34;10.63;;;5.93;;
15218;SDS011;15623;53.986;11.676;2023-10-13T03:38:06;14.30;;;6.70;;
15218;SDS011;15623;53.986;11.676;2023-10-13T03:40:40;14.20;;;6.93;;
15218;SDS011;15623;53.986;11.676;2023-10-13T03:43:07;13.57;;;7.03;;
15218;SDS011;15623;53.986;11.676;2023-10-13T03:45:36;15.27;;;7.47;;
15218;SDS011;15623;53.986;11.676;2023-10-13T03:48:05;19.13;;;7.97;;
15218;SDS011;15623;53.986;11.676;2023-10-13T03:50:37;17.40;;;8.27;;
15218;SDS011;15623;53.986;11.676;2023-10-13T03:53:11;21.27;;;8.47;;
15218;SDS011;15623;53.986;11.676;2023-10-13T03:55:39;23.77;;;8.90;;
15218;SDS011;15623;53.986;11.676;2023-10-13T03:58:13;27.97;;;10.50;;
15218;SDS011;15623;53.986;11.676;2023-10-13T04:00:41;25.00;;;9.90;;
15218;SDS011;15623;53.986;11.676;2023-10-13T04:03:09;27.43;;;9.87;;
15218;SDS011;15623;53.986;11.676;2023-10-13T04:05:43;26.30;;;10.93;;
15218;SDS011;15623;53.986;11.676;2023-10-13T04:08:25;28.67;;;11.47;;
15218;SDS011;15623;53.986;11.676;2023-10-13T04:11:13;31.20;;;11.53;;
15218;SDS011;15623;53.986;11.676;2023-10-13T04:13:59;28.53;;;11.57;;
15218;SDS011;15623;53.986;11.676;2023-10-13T04:16:44;29.83;;;12.80;;
15218;SDS011;15623;53.986;11.676;2023-10-13T04:19:19;34.57;;;12.10;;
15218;SDS011;15623;53.986;11.676;2023-10-13T04:22:02;30.67;;;12.53;;
15218;SDS011;15623;53.986;11.676;2023-10-13T04:24:39;37.10;;;12.70;;
15218;SDS011;15623;53.986;11.676;2023-10-13T04:27:20;35.67;;;12.77;;
15218;SDS011;15623;53.986;11.676;2023-10-13T04:30:06;37.70;;;13.00;;
15218;SDS011;15623;53.986;11.676;2023-10-13T04:32:36;37.13;;;13.50;;
15218;SDS011;15623;53.986;11.676;2023-10-13T04:35:11;42.87;;;15.20;;
15218;SDS011;15623;53.986;11.676;2023-10-13T04:37:45;34.00;;;14.50;;
15218;SDS011;15623;53.986;11.676;2023-10-13T04:40:19;32.97;;;13.87;;
15218;SDS011;15623;53.986;11.676;2023-10-13T04:42:50;44.57;;;15.60;;
15218;SDS011;15623;53.986;11.676;2023-10-13T04:45:24;38.63;;;14.20;;
15218;SDS011;15623;53.986;11.676;2023-10-13T04:48:03;38.97;;;15.80;;
15218;SDS011;15623;53.986;11.676;2023-10-13T04:50:58;38.77;;;15.33;;
15218;SDS011;15623;53.986;11.676;2023-10-13T04:53:46;37.67;;;16.37;;
15218;SDS011;15623;53.986;11.676;2023-10-13T04:56:36;35.33;;;15.27;;
15218;SDS011;15623;53.986;11.676;2023-10-13T04:59:21;33.97;;;15.30;;
15218;SDS011;15623;53.986;11.676;2023-10-13T05:02:02;33.87;;;15.60;;
15218;SDS011;15623;53.986;11.676;2023-10-13T05:05:08;39.00;;;16.43;;
15218;SDS011;15623;53.986;11.676;2023-10-13T05:07:47;37.77;;;15.77;;
15218;SDS011;15623;53.986;11.676;2023-10-13T05:10:34;37.87;;;16.63;;
15218;SDS011;15623;53.986;11.676;2023-10-13T05:13:19;32.30;;;16.30;;
15218;SDS011;15623;53.986;11.676;2023-10-13T05:16:04;30.60;;;15.93;;
15218;SDS011;15623;53.986;11.676;2023-10-13T05:18:49;32.73;;;15.77;;
15218;SDS011;15623;53.986;11.676;2023-10-13T05:21:39;34.60;;;16.33;;
15218;SDS011;15623;53.986;11.676;2023-10-13T05:24:24;33.80;;;16.53;;
15218;SDS011;15623;53.986;11.676;2023-10-13T05:27:11;30.47;;;15.33;;
15218;SDS011;15623;53.986;11.676;2023-10-13T05:29:55;34.83;;;16.27;;
15218;SDS011;15623;53.986;11.676;2023-10-13T05:32:40;32.27;;;15.90;;
15218;SDS011;15623;53.986;11.676;2023-10-13T05:35:26;27.23;;;16.53;;
15218;SDS011;15623;53.986;11.676;2023-10-13T05:38:10;31.00;;;16.17;;
15218;SDS011;15623;53.986;11.676;2023-10-13T05:40:56;25.40;;;14.20;;
15218;SDS011;15623;53.986;11.676;2023-10-13T05:43:43;23.20;;;13.93;;
15218;SDS011;15623;53.986;11.676;2023-10-13T05:46:28;22.60;;;12.67;;
15218;SDS011;15623;53.986;11.676;2023-10-13T05:49:14;16.67;;;11.97;;
15218;SDS011;15623;53.986;11.676;2023-10-13T05:51:55;19.10;;;11.57;;
15218;SDS011;15623;53.986;11.676;2023-10-13T05:54:33;13.97;;;10.07;;
15218;SDS011;15623;53.986;11.676;2023-10-13T05:57:18;12.67;;;9.83;;
15218;SDS011;15623;53.986;11.676;2023-10-13T06:00:05;10.40;;;8.90;;
15218;SDS011;15623;53.986;11.676;2023-10-13T06:02:50;9.40;;;8.43;;
15218;SDS011;15623;53.986;11.676;2023-10-13T06:05:35;12.37;;;8.00;;
15218;SDS011;15623;53.986;11.676;2023-10-13T06:08:20;9.13;;;8.23;;
15218;SDS011;15623;53.986;11.676;2023-10-13T06:11:05;9.77;;;8.77;;
15218;SDS011;15623;53.986;11.676;2023-10-13T06:13:49;9.47;;;8.40;;
15218;SDS011;15623;53.986;11.676;2023-10-13T06:16:36;10.20;;;8.75;;
15218;SDS011;15623;53.986;11.676;2023-10-13T06:19:21;10.90;;;8.80;;
15218;SDS011;15623;53.986;11.676;2023-10-13T06:22:05;11.23;;;8.70;;
15218;SDS011;15623;53.986;11.676;2023-10-13T06:24:50;10.03;;;8.47;;
15218;SDS011;15623;53.986;11.676;2023-10-13T06:27:35;9.63;;;8.38;;
15218;SDS011;15623;53.986;11.676;2023-10-13T06:30:19;10.23;;;8.70;;
15218;SDS011;15623;53.986;11.676;2023-10-13T06:32:48;10.43;;;8.77;;
15218;SDS011;15623;53.986;11.676;2023-10-13T06:35:16;16.60;;;10.73;;
15218;SDS011;15623;53.986;11.676;2023-10-13T06:37:49;13.60;;;10.30;;
15218;SDS011;15623;53.986;11.676;2023-10-13T06:40:17;15.43;;;10.90;;
15218;SDS011;15623;53.986;11.676;2023-10-13T06:42:58;17.63;;;11.87;;
15218;SDS011;15623;53.986;11.676;2023-10-13T06:45:38;22.85;;;14.18;;
15218;SDS011;15623;53.986;11.676;2023-10-13T06:48:07;25.42;;;14.77;;
15218;SDS011;15623;53.986;11.676;2023-10-13T06:50:36;28.27;;;15.53;;
15218;SDS011;15623;53.986;11.676;2023-10-13T06:53:07;25.75;;;15.52;;
15218;SDS011;15623;53.986;11.676;2023-10-13T06:55:37;31.27;;;16.67;;
15218;SDS011;15623;53.986;11.676;2023-10-13T06:58:05;32.67;;;16.85;;
15218;SDS011;15623;53.986;11.676;2023-10-13T07:00:38;33.97;;;17.75;;
15218;SDS011;15623;53.986;11.676;2023-10-13T07:03:19;36.15;;;18.23;;
15218;SDS011;15623;53.986;11.676;2023-10-13T07:05:46;40.17;;;20.50;;
15218;SDS011;15623;53.986;11.676;2023-10-13T07:08:14;41.65;;;21.20;;
15218;SDS011;15623;53.986;11.676;2023-10-13T07:10:47;48.92;;;21.70;;
15218;SDS011;15623;53.986;11.676;2023-10-13T07:13:16;49.13;;;23.50;;
15218;SDS011;15623;53.986;11.676;2023-10-13T07:15:44;51.47;;;23.67;;
15218;SDS011;15623;53.986;11.676;2023-10-13T07:18:12;52.13;;;23.98;;
15218;SDS011;15623;53.986;11.676;2023-10-13T07:20:43;51.85;;;24.35;;
15218;SDS011;15623;53.986;11.676;2023-10-13T07:23:10;54.17;;;26.30;;
15218;SDS011;15623;53.986;11.676;2023-10-13T07:25:43;55.20;;;26.23;;
15218;SDS011;15623;53.986;11.676;2023-10-13T07:28:18;55.70;;;26.25;;
15218;SDS011;15623;53.986;11.676;2023-10-13T07:30:46;57.17;;;26.85;;
15218;SDS011;15623;53.986;11.676;2023-10-13T07:33:36;61.40;;;29.52;;
15218;SDS011;15623;53.986;11.676;2023-10-13T07:36:08;61.03;;;29.88;;
15218;SDS011;15623;53.986;11.676;2023-10-13T07:38:43;70.97;;;31.50;;
15218;SDS011;15623;53.986;11.676;2023-10-13T07:41:13;58.45;;;29.45;;
15218;SDS011;15623;53.986;11.676;2023-10-13T07:43:42;64.70;;;30.77;;
15218;SDS011;15623;53.986;11.676;2023-10-13T07:46:11;70.95;;;31.13;;
15218;SDS011;15623;53.986;11.676;2023-10-13T07:48:38;67.70;;;32.47;;
15218;SDS011;15623;53.986;11.676;2023-10-13T07:51:12;61.33;;;31.13;;
15218;SDS011;15623;53.986;11.676;2023-10-13T07:53:41;59.03;;;31.23;;
15218;SDS011;15623;53.986;11.676;2023-10-13T07:56:09;55.80;;;30.73;;
15218;SDS011;15623;53.986;11.676;2023-10-13T07:58:37;63.28;;;31.70;;
15218;SDS011;15623;53.986;11.676;2023-10-13T08:01:13;60.33;;;31.20;;
15218;SDS011;15623;53.986;11.676;2023-10-13T08:03:44;57.97;;;30.95;;
15218;SDS011;15623;53.986;11.676;2023-10-13T08:06:12;61.53;;;33.55;;
15218;SDS011;15623;53.986;11.676;2023-10-13T08:08:51;59.10;;;31.23;;
15218;SDS011;15623;53.986;11.676;2023-10-13T08:11:32;57.63;;;32.53;;
15218;SDS011;15623;53.986;11.676;2023-10-13T08:14:03;62.20;;;32.28;;
15218;SDS011;15623;53.986;11.676;2023-10-13T08:16:47;59.15;;;31.40;;
15218;SDS011;15623;53.986;11.676;2023-10-13T08:19:25;59.63;;;31.00;;
15218;SDS011;15623;53.986;11.676;2023-10-13T08:21:55;56.10;;;31.67;;
15218;SDS011;15623;53.986;11.676;2023-10-13T08:24:46;54.20;;;30.05;;
15218;SDS011;15623;53.986;11.676;2023-10-13T08:27:24;60.55;;;31.83;;
15218;SDS011;15623;53.986;11.676;2023-10-13T08:29:59;49.22;;;30.58;;
15218;SDS011;15623;53.986;11.676;2023-10-13T08:32:44;48.08;;;28.02;;
15218;SDS011;15623;53.986;11.676;2023-10-13T08:35:20;50.17;;;29.73;;
15218;SDS011;15623;53.986;11.676;2023-10-13T08:38:21;44.17;;;26.80;;
15218;SDS011;15623;53.986;11.676;2023-10-13T08:40:57;40.83;;;26.42;;
15218;SDS011;15623;53.986;11.676;2023-10-13T08:43:42;41.78;;;27.40;;
15218;SDS011;15623;53.986;11.676;2023-10-13T08:46:15;39.83;;;26.25;;
15218;SDS011;15623;53.986;11.676;2023-10-13T08:48:54;35.97;;;25.15;;
15218;SDS011;15623;53.986;11.676;2023-10-13T08:51:45;36.42;;;23.85;;
15218;SDS011;15623;53.986;11.676;2023-10-13T08:54:17;34.15;;;24.50;;
15218;SDS011;15623;53.986;11.676;2023-10-13T08:56:59;33.75;;;24.25;;
15218;SDS011;15623;53.986;11.676;2023-10-13T08:59:44;32.95;;;23.33;;
15218;SDS011;15623;53.986;11.676;2023-10-13T09:02:18;31.30;;;22.02;;
15218;SDS011;15623;53.986;11.676;2023-10-13T09:05:08;31.83;;;22.35;;
15218;SDS011;15623;53.986;11.676;2023-10-13T09:07:55;29.05;;;21.05;;
15218;SDS011;15623;53.986;11.676;2023-10-13T09:10:35;27.02;;;20.17;;
15218;SDS011;15623;53.986;11.676;2023-10-13T09:13:10;23.77;;;19.63;;
15218;SDS011;15623;53.986;11.676;2023-10-13T09:15:45;26.17;;;20.38;;
15218;SDS011;15623;53.986;11.676;2023-10-13T09:18:27;21.90;;;18.92;;
15218;SDS011;15623;53.986;11.676;2023-10-13T09:21:12;24.83;;;18.95;;
15218;SDS011;15623;53.986;11.676;2023-10-13T09:23:56;23.73;;;19.35;;
15218;SDS011;15623;53.986;11.676;2023-10-13T09:26:39;19.25;;;17.17;;
15218;SDS011;15623;53.986;11.676;2023-10-13T09:29:14;21.92;;;18.23;;
15218;SDS011;15623;53.986;11.676;2023-10-13T09:31:43;18.55;;;16.65;;
15218;SDS011;15623;53.986;11.676;2023-10-13T09:34:19;20.48;;;17.02;;
15218;SDS011;15623;53.986;11.676;2023-10-13T09:36:48;20.80;;;17.40;;
15218;SDS011;15623;53.986;11.676;2023-10-13T09:39:22;20.98;;;16.00;;
15218;SDS011;15623;53.986;11.676;2023-10-13T09:41:56;17.33;;;15.52;;
15218;SDS011;15623;53.986;11.676;2023-10-13T09:44:25;19.08;;;15.65;;
15218;SDS011;15623;53.986;11.676;2023-10-13T09:46:55;16.88;;;15.07;;
15218;SDS011;15623;53.986;11.676;2023-10-13T09:49:31;16.08;;;14.48;;
15218;SDS011;15623;53.986;11.676;2023-10-13T09:52:10;16.35;;;14.65;;
15218;SDS011;15623;53.986;11.676;2023-10-13T09:54:44;16.98;;;13.98;;
15218;SDS011;15623;53.986;11.676;2023-10-13T09:57:18;13.50;;;12.32;;
15218;SDS011;15623;53.986;11.676;2023-10-13T09:59:50;13.23;;;12.02;;
15218;SDS011;15623;53.986;11.676;2023-10-13T10:02:19;13.45;;;12.13;;
15218;SDS011;15623;53.986;11.676;2023-10-13T10:04:51;12.25;;;11.15;;
15218;SDS011;15623;53.986;11.676;2023-10-13T10:07:23;12.50;;;11.30;;
15218;SDS011;15623;53.986;11.676;2023-10-13T10:09:58;11.82;;;10.93;;
15218;SDS011;15623;53.986;11.676;2023-10-13T10:12:29;9.40;;;8.70;;
15218;SDS011;15623;53.986;11.676;2023-10-13T10:15:07;9.57;;;8.80;;
15218;SDS011;15623;53.986;11.676;2023-10-13T10:17:39;8.48;;;7.88;;
15218;SDS011;15623;53.986;11.676;2023-10-13T10:20:08;9.23;;;8.52;;
15218;SDS011;15623;53.986;11.676;2023-10-13T10:22:55;8.93;;;8.30;;
15218;SDS011;15623;53.986;11.676;2023-10-13T10:25:28;8.70;;;8.10;;
15218;SDS011;15623;53.986;11.676;2023-10-13T10:28:01;9.20;;;8.30;;
15218;SDS011;15623;53.986;11.676;2023-10-13T10:30:31;8.68;;;7.90;;
15218;SDS011;15623;53.986;11.676;2023-10-13T10:33:00;8.07;;;7.57;;
15218;SDS011;15623;53.986;11.676;2023-10-13T10:35:33;8.15;;;7.53;;
15218;SDS011;15623;53.986;11.676;2023-10-13T10:38:07;9.38;;;8.68;;
15218;SDS011;15623;53.986;11.676;2023-10-13T10:40:50;8.13;;;7.50;;
15218;SDS011;15623;53.986;11.676;2023-10-13T10:43:23;8.38;;;7.78;;
15218;SDS011;15623;53.986;11.676;2023-10-13T10:45:53;7.53;;;6.93;;
15218;SDS011;15623;53.986;11.676;2023-10-13T10:48:25;6.43;;;6.03;;
15218;SDS011;15623;53.986;11.676;2023-10-13T10:50:57;5.75;;;5.25;;
15218;SDS011;15623;53.986;11.676;2023-10-13T10:53:33;5.53;;;5.18;;
15218;SDS011;15623;53.986;11.676;2023-10-13T10:56:09;5.75;;;5.25;;
15218;SDS011;15623;53.986;11.676;2023-10-13T10:59:03;5.60;;;5.10;;
15218;SDS011;15623;53.986;11.676;2023-10-13T11:01:32;5.28;;;4.82;;
15218;SDS011;15623;53.986;11.676;2023-10-13T11:04:12;6.10;;;4.80;;
15218;SDS011;15623;53.986;11.676;2023-10-13T11:06:46;5.53;;;4.65;;
15218;SDS011;15623;53.986;11.676;2023-10-13T11:09:13;5.07;;;4.68;;
15218;SDS011;15623;53.986;11.676;2023-10-13T11:11:57;5.53;;;4.60;;
15218;SDS011;15623;53.986;11.676;2023-10-13T11:14:30;5.63;;;4.80;;
15218;SDS011;15623;53.986;11.676;2023-10-13T11:16:58;4.72;;;4.32;;
15218;SDS011;15623;53.986;11.676;2023-10-13T11:19:33;5.15;;;4.65;;
15218;SDS011;15623;53.986;11.676;2023-10-13T11:22:09;5.20;;;4.70;;
15218;SDS011;15623;53.986;11.676;2023-10-13T11:24:54;5.70;;;4.90;;
15218;SDS011;15623;53.986;11.676;2023-10-13T11:27:27;6.57;;;4.72;;
15218;SDS011;15623;53.986;11.676;2023-10-13T11:30:11;7.43;;;4.78;;
15218;SDS011;15623;53.986;11.676;2023-10-13T11:32:40;4.90;;;4.20;;
15218;SDS011;15623;53.986;11.676;2023-10-13T11:35:08;4.82;;;4.43;;
15218;SDS011;15623;53.986;11.676;2023-10-13T11:37:45;19.20;;;12.25;;
15218;SDS011;15623;53.986;11.676;2023-10-13T11:40:21;19.50;;;13.30;;
15218;SDS011;15623;53.986;11.676;2023-10-13T11:43:08;8.48;;;6.10;;
15218;SDS011;15623;53.986;11.676;2023-10-13T11:45:41;10.43;;;8.82;;
15218;SDS011;15623;53.986;11.676;2023-10-13T11:48:20;6.55;;;6.03;;
15218;SDS011;15623;53.986;11.676;2023-10-13T11:51:00;6.55;;;4.80;;
15218;SDS011;15623;53.986;11.676;2023-10-13T11:53:30;8.07;;;6.13;;
15218;SDS011;15623;53.986;11.676;2023-10-13T11:55:58;16.77;;;12.38;;
15218;SDS011;15623;53.986;11.676;2023-10-13T11:58:25;8.77;;;7.57;;
15218;SDS011;15623;53.986;11.676;2023-10-13T12:00:55;10.55;;;9.50;;
15218;SDS011;15623;53.986;11.676;2023-10-13T12:03:45;19.35;;;11.98;;
15218;SDS011;15623;53.986;11.676;2023-10-13T12:06:30;16.80;;;11.55;;
15218;SDS011;15623;53.986;11.676;2023-10-13T12:09:11;13.15;;;8.45;;
15218;SDS011;15623;53.986;11.676;2023-10-13T12:12:01;22.25;;;13.15;;
15218;SDS011;15623;53.986;11.676;2023-10-13T12:14:29;27.10;;;14.95;;
15218;SDS011;15623;53.986;11.676;2023-10-13T12:17:04;20.02;;;11.65;;
15218;SDS011;15623;53.986;11.676;2023-10-13T12:19:35;24.08;;;10.20;;
15218;SDS011;15623;53.986;11.676;2023-10-13T12:22:06;17.25;;;12.07;;
15218;SDS011;15623;53.986;11.676;2023-10-13T12:24:34;26.48;;;14.63;;
15218;SDS011;15623;53.986;11.676;2023-10-13T12:27:07;17.55;;;10.85;;
15218;SDS011;15623;53.986;11.676;2023-10-13T12:29:48;15.30;;;9.68;;
15218;SDS011;15623;53.986;11.676;2023-10-13T12:32:18;23.15;;;12.98;;
15218;SDS011;15623;53.986;11.676;2023-10-13T12:34:47;19.75;;;11.18;;
15218;SDS011;15623;53.986;11.676;2023-10-13T12:37:26;17.27;;;9.52;;
15218;SDS011;15623;53.986;11.676;2023-10-13T12:40:15;17.50;;;9.77;;
15218;SDS011;15623;53.986;11.676;2023-10-13T12:43:00;21.60;;;11.80;;
15218;SDS011;15623;53.986;11.676;2023-10-13T12:45:46;15.82;;;7.97;;
15218;SDS011;15623;53.986;11.676;2023-10-13T12:48:33;17.35;;;9.65;;
15218;SDS011;15623;53.986;11.676;2023-10-13T12:51:18;21.38;;;11.40;;
15218;SDS011;15623;53.986;11.676;2023-10-13T12:54:05;9.68;;;7.70;;
15218;SDS011;15623;53.986;11.676;2023-10-13T12:56:40;19.90;;;12.32;;
15218;SDS011;15623;53.986;11.676;2023-10-13T12:59:08;14.77;;;8.50;;
15218;SDS011;15623;53.986;11.676;2023-10-13T13:01:38;17.10;;;9.90;;
15218;SDS011;15623;53.986;11.676;2023-10-13T13:04:10;11.50;;;8.23;;
15218;SDS011;15623;53.986;11.676;2023-10-13T13:06:45;13.60;;;8.23;;
15218;SDS011;15623;53.986;11.676;2023-10-13T13:09:12;16.67;;;10.23;;
15218;SDS011;15623;53.986;11.676;2023-10-13T13:11:40;12.18;;;6.90;;
15218;SDS011;15623;53.986;11.676;2023-10-13T13:14:07;7.88;;;5.13;;
15218;SDS011;15623;53.986;11.676;2023-10-13T13:16:35;12.82;;;5.82;;
15218;SDS011;15623;53.986;11.676;2023-10-13T13:19:04;10.32;;;6.97;;
15218;SDS011;15623;53.986;11.676;2023-10-13T13:21:38;9.93;;;7.35;;
15218;SDS011;15623;53.986;11.676;2023-10-13T13:24:06;13.70;;;7.85;;
15218;SDS011;15623;53.986;11.676;2023-10-13T13:26:36;17.90;;;8.20;;
15218;SDS011;15623;53.986;11.676;2023-10-13T13:29:08;12.93;;;7.22;;
15218;SDS011;15623;53.986;11.676;2023-10-13T13:31:40;12.75;;;5.53;;
15218;SDS011;15623;53.986;11.676;2023-10-13T13:34:09;6.18;;;5.10;;
15218;SDS011;15623;53.986;11.676;2023-10-13T13:36:41;11.98;;;6.60;;
15218;SDS011;15623;53.986;11.676;2023-10-13T13:39:10;8.25;;;5.22;;
15218;SDS011;15623;53.986;11.676;2023-10-13T13:41:37;6.55;;;5.90;;
15218;SDS011;15623;53.986;11.676;2023-10-13T13:44:04;7.53;;;4.93;;
15218;SDS011;15623;53.986;11.676;2023-10-13T13:46:42;11.85;;;5.28;;
15218;SDS011;15623;53.986;11.676;2023-10-13T13:49:12;10.05;;;5.43;;
15218;SDS011;15623;53.986;11.676;2023-10-13T13:51:52;6.70;;;5.07;;
15218;SDS011;15623;53.986;11.676;2023-10-13T13:54:19;7.07;;;5.03;;
15218;SDS011;15623;53.986;11.676;2023-10-13T13:57:06;8.85;;;5.55;;
15218;SDS011;15623;53.986;11.676;2023-10-13T13:59:33;9.57;;;6.60;;
15218;SDS011;15623;53.986;11.676;2023-10-13T14:02:10;9.80;;;5.15;;
15218;SDS011;15623;53.986;11.676;2023-10-13T14:04:46;5.00;;;4.55;;
15218;SDS011;15623;53.986;11.676;2023-10-13T14:07:17;8.90;;;4.80;;
15218;SDS011;15623;53.986;11.676;2023-10-13T14:09:51;10.48;;;4.90;;
15218;SDS011;15623;53.986;11.676;2023-10-13T14:12:31;7.00;;;4.70;;
15218;SDS011;15623;53.986;11.676;2023-10-13T14:15:07;7.68;;;4.93;;
15218;SDS011;15623;53.986;11.676;2023-10-13T14:17:47;12.02;;;5.20;;
15218;SDS011;15623;53.986;11.676;2023-10-13T14:20:21;6.10;;;4.72;;
15218;SDS011;15623;53.986;11.676;2023-10-13T14:22:53;9.00;;;5.30;;
15218;SDS011;15623;53.986;11.676;2023-10-13T14:25:21;7.32;;;4.35;;
15218;SDS011;15623;53.986;11.676;2023-10-13T14:27:57;9.63;;;4.75;;
15218;SDS011;15623;53.986;11.676;2023-10-13T14:30:30;9.07;;;4.70;;
15218;SDS011;15623;53.986;11.676;2023-10-13T14:32:58;10.95;;;5.07;;
15218;SDS011;15623;53.986;11.676;2023-10-13T14:35:28;8.15;;;4.38;;
15218;SDS011;15623;53.986;11.676;2023-10-13T14:37:59;5.43;;;4.90;;
15218;SDS011;15623;53.986;11.676;2023-10-13T14:40:33;12.13;;;5.05;;
15218;SDS011;15623;53.986;11.676;2023-10-13T14:43:07;10.65;;;5.05;;
15218;SDS011;15623;53.986;11.676;2023-10-13T14:45:35;11.68;;;5.60;;
15218;SDS011;15623;53.986;11.676;2023-10-13T14:48:02;6.80;;;4.90;;
15218;SDS011;15623;53.986;11.676;2023-10-13T14:50:33;10.30;;;4.93;;
15218;SDS011;15623;53.986;11.676;2023-10-13T14:53:02;7.15;;;5.05;;
15218;SDS011;15623;53.986;11.676;2023-10-13T14:55:29;9.27;;;4.95;;
15218;SDS011;15623;53.986;11.676;2023-10-13T14:58:04;7.80;;;4.97;;
15218;SDS011;15623;53.986;11.676;2023-10-13T15:00:33;11.13;;;4.97;;
15218;SDS011;15623;53.986;11.676;2023-10-13T15:03:01;8.23;;;4.93;;
15218;SDS011;15623;53.986;11.676;2023-10-13T15:05:31;11.27;;;5.38;;